createdAt,value
2018-08-20T00:00:58.988Z,22.50
2018-08-20T00:03:26.302Z,22.40
2018-08-20T00:05:54.358Z,22.20
2018-08-20T00:08:22.263Z,22.30
2018-08-20T00:10:51.622Z,22.30
2018-08-20T00:13:18.586Z,22.20
2018-08-20T00:15:45.906Z,21.90
2018-08-20T00:18:17.529Z,21.90
2018-08-20T00:20:44.472Z,21.80
2018-08-20T00:23:11.454Z,21.60
2018-08-20T00:25:38.483Z,21.70
2018-08-20T00:28:05.466Z,21.70
2018-08-20T00:30:32.421Z,21.90
2018-08-20T00:32:59.413Z,21.90
2018-08-20T00:35:26.394Z,21.90
2018-08-20T00:37:53.393Z,22.10
2018-08-20T00:40:21.039Z,22.10
2018-08-20T00:42:48.100Z,22.10
2018-08-20T00:45:15.126Z,22.10
2018-08-20T00:47:42.088Z,22.20
2018-08-20T00:50:09.681Z,22.10
2018-08-20T00:52:37.018Z,22.20
2018-08-20T00:55:05.426Z,22.20
2018-08-20T00:57:32.376Z,22.10
2018-08-20T00:59:59.586Z,22.10
2018-08-20T01:02:29.387Z,22.00
2018-08-20T01:04:56.744Z,21.80
2018-08-20T01:07:23.978Z,21.80
2018-08-20T01:09:50.922Z,21.70
2018-08-20T01:12:17.864Z,21.70
2018-08-20T01:14:44.870Z,21.60
2018-08-20T01:17:11.801Z,21.50
2018-08-20T01:19:38.770Z,21.50
2018-08-20T01:22:06.150Z,21.50
2018-08-20T01:24:33.205Z,21.50
2018-08-20T01:27:00.207Z,21.50
2018-08-20T01:29:27.185Z,21.50
2018-08-20T01:31:54.146Z,21.40
2018-08-20T01:34:21.146Z,21.40
2018-08-20T01:36:48.155Z,21.40
2018-08-20T01:39:15.106Z,21.30
2018-08-20T01:41:42.075Z,21.30
2018-08-20T01:44:09.067Z,21.30
2018-08-20T01:46:36.059Z,21.40
2018-08-20T01:49:02.981Z,21.30
2018-08-20T01:51:30.309Z,21.30
2018-08-20T01:53:57.265Z,21.30
2018-08-20T01:56:24.213Z,21.30
2018-08-20T01:58:51.219Z,21.30
2018-08-20T02:01:18.223Z,21.30
2018-08-20T02:03:45.238Z,21.20
2018-08-20T02:06:12.263Z,21.20
2018-08-20T02:08:39.243Z,21.20
2018-08-20T02:11:06.204Z,21.30
2018-08-20T02:13:33.286Z,21.20
2018-08-20T02:16:00.281Z,21.20
2018-08-20T02:18:27.249Z,21.10
2018-08-20T02:20:54.558Z,21.10
2018-08-20T02:23:21.564Z,21.00
2018-08-20T02:25:48.488Z,21.00
2018-08-20T02:28:15.477Z,20.90
2018-08-20T02:30:42.459Z,20.90
2018-08-20T02:33:09.456Z,20.90
2018-08-20T02:35:36.477Z,20.90
2018-08-20T02:38:03.442Z,20.80
2018-08-20T02:40:30.404Z,20.80
2018-08-20T02:42:57.368Z,20.80
2018-08-20T02:45:24.360Z,20.80
2018-08-20T02:47:51.335Z,20.70
2018-08-20T02:50:18.541Z,20.60
2018-08-20T02:52:45.562Z,20.60
2018-08-20T02:55:12.715Z,20.50
2018-08-20T02:57:39.796Z,20.50
2018-08-20T03:00:09.369Z,20.40
2018-08-20T03:02:36.470Z,20.50
2018-08-20T03:05:03.723Z,20.40
2018-08-20T03:07:30.693Z,20.40
2018-08-20T03:09:57.956Z,20.30
2018-08-20T03:12:24.926Z,20.20
2018-08-20T03:14:51.900Z,20.20
2018-08-20T03:17:18.978Z,20.20
2018-08-20T03:19:45.963Z,20.10
2018-08-20T03:22:12.925Z,20.10
2018-08-20T03:24:39.905Z,20.10
2018-08-20T03:27:06.841Z,20.10
2018-08-20T03:29:33.797Z,20.10
2018-08-20T03:32:00.910Z,20.00
2018-08-20T03:34:27.848Z,20.00
2018-08-20T03:36:54.818Z,20.00
2018-08-20T03:39:22.118Z,20.00
2018-08-20T03:41:49.058Z,20.00
2018-08-20T03:44:16.057Z,19.90
2018-08-20T03:46:43.043Z,19.90
2018-08-20T03:51:37.106Z,19.80
2018-08-20T03:54:04.229Z,19.80
2018-08-20T03:56:31.297Z,19.80
2018-08-20T03:58:58.332Z,19.80
2018-08-20T04:01:25.658Z,19.80
2018-08-20T04:03:52.955Z,19.80
2018-08-20T04:06:19.961Z,19.80
2018-08-20T04:08:46.950Z,19.70
2018-08-20T04:11:13.936Z,19.70
2018-08-20T04:13:41.202Z,19.80
2018-08-20T04:16:08.139Z,19.70
2018-08-20T04:18:35.103Z,19.60
2018-08-20T04:21:02.100Z,19.70
2018-08-20T04:23:29.063Z,19.60
2018-08-20T04:25:56.026Z,19.60
2018-08-20T04:28:22.973Z,19.50
2018-08-20T04:30:49.941Z,19.60
2018-08-20T04:33:16.929Z,19.60
2018-08-20T04:35:44.324Z,19.70
2018-08-20T04:38:11.342Z,19.70
2018-08-20T04:40:38.309Z,19.60
2018-08-20T04:43:05.800Z,19.60
2018-08-20T04:45:32.774Z,19.70
2018-08-20T04:47:59.830Z,19.70
2018-08-20T04:50:27.344Z,19.70
2018-08-20T04:52:54.125Z,19.90
2018-08-20T04:55:21.101Z,19.90
2018-08-20T04:57:48.120Z,19.90
2018-08-20T05:00:15.078Z,19.80
2018-08-20T05:02:42.066Z,19.80
2018-08-20T05:05:09.015Z,19.90
2018-08-20T05:07:36.017Z,20.00
2018-08-20T05:10:03.542Z,20.10
2018-08-20T05:12:30.423Z,20.30
2018-08-20T05:14:57.493Z,20.30
2018-08-20T05:17:24.626Z,20.20
2018-08-20T05:19:51.965Z,20.30
2018-08-20T05:22:18.931Z,20.50
2018-08-20T05:24:45.903Z,20.60
2018-08-20T05:27:12.866Z,20.80
2018-08-20T05:29:39.848Z,20.90
2018-08-20T05:32:06.900Z,21.00
2018-08-20T05:34:33.883Z,21.10
2018-08-20T05:37:00.898Z,21.20
2018-08-20T05:39:27.906Z,21.30
2018-08-20T05:41:54.837Z,21.30
2018-08-20T05:44:21.862Z,21.30
2018-08-20T05:46:48.882Z,21.30
2018-08-20T05:49:15.872Z,21.40
2018-08-20T05:51:42.961Z,21.30
2018-08-20T05:54:10.166Z,21.30
2018-08-20T05:56:37.186Z,21.40
2018-08-20T05:59:04.372Z,21.60
2018-08-20T06:01:31.393Z,21.70
2018-08-20T06:03:58.338Z,21.90
2018-08-20T06:06:25.359Z,22.00
2018-08-20T06:08:52.354Z,22.30
2018-08-20T06:11:19.363Z,22.50
2018-08-20T06:13:46.334Z,22.70
2018-08-20T06:16:13.399Z,22.40
2018-08-20T06:18:40.381Z,22.50
2018-08-20T06:45:38.701Z,22.80
2018-08-20T06:48:05.928Z,25.10
2018-08-20T06:50:32.937Z,24.60
2018-08-20T07:24:55.375Z,24.70
2018-08-20T07:29:49.597Z,24.80
2018-08-20T07:32:16.567Z,24.10
2018-08-20T07:34:45.091Z,23.90
2018-08-20T07:37:13.484Z,24.00
2018-08-20T07:39:42.239Z,24.30
2018-08-20T07:42:10.114Z,24.40
2018-08-20T07:44:38.040Z,24.60
2018-08-20T07:47:05.755Z,25.00
2018-08-20T07:49:32.830Z,24.90
2018-08-20T07:59:22.027Z,25.10
2018-08-20T08:01:48.973Z,25.50
2018-08-20T08:04:16.021Z,25.70
2018-08-20T08:06:43.033Z,25.70
2018-08-20T08:09:10.836Z,25.50
2018-08-20T08:11:37.851Z,25.50
2018-08-20T08:14:05.689Z,25.40
2018-08-20T08:16:33.003Z,25.40
2018-08-20T08:19:00.080Z,25.20
2018-08-20T08:21:27.107Z,25.30
2018-08-20T08:23:54.049Z,25.30
2018-08-20T08:26:21.500Z,24.80
2018-08-20T08:28:48.438Z,24.90
2018-08-20T08:31:15.438Z,24.60
2018-08-20T08:33:42.481Z,24.70
2018-08-20T08:36:09.474Z,24.40
2018-08-20T08:38:36.437Z,24.60
2018-08-20T08:41:03.437Z,24.80
2018-08-20T08:43:30.415Z,24.60
2018-08-20T08:45:57.423Z,24.90
2018-08-20T08:48:24.429Z,25.00
2018-08-20T08:50:51.460Z,24.80
2018-08-20T08:53:18.413Z,24.70
2018-08-20T08:55:45.418Z,24.60
2018-08-20T08:58:12.384Z,24.30
2018-08-20T09:00:39.401Z,24.50
2018-08-20T09:03:06.296Z,24.60
2018-08-20T09:05:33.297Z,24.60
2018-08-20T09:08:00.298Z,25.00
2018-08-20T09:10:27.322Z,25.00
2018-08-20T09:12:54.293Z,25.00
2018-08-20T09:15:21.320Z,25.00
2018-08-20T09:17:48.253Z,25.40
2018-08-20T09:20:16.461Z,25.20
2018-08-20T09:22:43.570Z,25.50
2018-08-20T09:25:11.636Z,25.50
2018-08-20T09:27:38.961Z,25.70
2018-08-20T09:30:10.220Z,25.50
2018-08-20T09:32:37.238Z,25.40
2018-08-20T09:35:04.854Z,25.60
2018-08-20T09:37:31.931Z,25.80
2018-08-20T09:39:58.905Z,25.80
2018-08-20T09:42:25.889Z,25.70
2018-08-20T09:44:53.198Z,25.70
2018-08-20T09:47:20.219Z,25.80
2018-08-20T09:49:47.148Z,25.10
2018-08-20T09:52:14.215Z,25.40
2018-08-20T09:54:41.344Z,25.30
2018-08-20T09:57:08.424Z,25.40
2018-08-20T09:59:35.458Z,25.40
2018-08-20T10:02:02.510Z,25.50
2018-08-20T10:04:29.552Z,25.00
2018-08-20T10:06:56.525Z,25.10
2018-08-20T10:11:50.666Z,25.40
2018-08-20T10:14:17.686Z,24.40
2018-08-20T10:16:44.895Z,24.40
2018-08-20T10:19:11.972Z,24.60
2018-08-20T10:21:38.953Z,24.70
2018-08-20T10:24:06.268Z,24.50
2018-08-20T10:26:33.279Z,24.50
2018-08-20T10:29:00.347Z,24.50
2018-08-20T10:31:27.475Z,24.40
2018-08-20T10:33:54.551Z,24.50
2018-08-20T10:36:21.539Z,24.50
2018-08-20T10:38:48.612Z,24.50
2018-08-20T10:41:15.942Z,24.30
2018-08-20T10:43:43.200Z,24.40
2018-08-20T10:46:16.126Z,24.50
2018-08-20T10:48:43.468Z,24.50
2018-08-20T10:51:10.593Z,24.70
2018-08-20T10:53:37.648Z,25.00
2018-08-20T11:30:25.830Z,25.20
2018-08-20T11:32:55.423Z,25.20
2018-08-20T11:35:22.469Z,25.50
2018-08-20T11:37:49.543Z,25.30
2018-08-20T11:45:12.512Z,25.60
2018-08-20T11:47:39.619Z,26.10
2018-08-20T11:50:06.725Z,25.50
2018-08-20T11:52:33.863Z,25.30
2018-08-20T11:55:00.935Z,25.20
2018-08-20T11:57:27.992Z,25.00
2018-08-20T11:59:55.061Z,25.00
2018-08-20T12:02:22.444Z,24.90
2018-08-20T12:04:49.478Z,24.90
2018-08-20T12:07:16.497Z,24.90
2018-08-20T12:09:43.550Z,24.80
2018-08-20T12:12:10.595Z,24.70
2018-08-20T12:14:37.589Z,24.40
2018-08-20T12:17:04.592Z,24.40
2018-08-20T12:19:31.717Z,24.30
2018-08-20T12:21:58.682Z,24.20
2018-08-20T12:24:26.035Z,24.10
2018-08-20T12:26:53.066Z,24.30
2018-08-20T12:29:20.106Z,24.50
2018-08-20T12:31:47.133Z,24.70
2018-08-20T12:34:14.146Z,24.80
2018-08-20T12:36:41.167Z,24.90
2018-08-20T12:39:08.496Z,24.70
2018-08-20T12:41:35.674Z,24.60
2018-08-20T12:44:03.024Z,24.50
2018-08-20T12:46:30.047Z,24.30
2018-08-20T12:48:57.003Z,24.30
2018-08-20T12:51:24.002Z,24.30
2018-08-20T12:53:50.965Z,24.60
2018-08-20T12:56:17.945Z,24.70
2018-08-20T12:58:47.760Z,24.90
2018-08-20T13:01:14.999Z,24.60
2018-08-20T13:03:41.956Z,24.60
2018-08-20T13:06:08.935Z,24.60
2018-08-20T13:08:35.960Z,24.60
2018-08-20T13:11:03.009Z,24.60
2018-08-20T13:25:45.729Z,24.20
2018-08-20T13:28:12.714Z,24.20
2018-08-20T13:30:39.895Z,24.50
2018-08-20T13:33:06.902Z,24.70
2018-08-20T13:35:33.857Z,24.90
2018-08-20T13:38:00.874Z,25.00
2018-08-20T13:40:27.842Z,25.00
2018-08-20T13:43:01.932Z,24.90
2018-08-20T13:45:28.942Z,24.70
2018-08-20T13:47:55.909Z,24.60
2018-08-20T13:50:22.882Z,23.80
2018-08-20T13:52:49.995Z,23.10
2018-08-20T13:55:16.924Z,23.00
2018-08-20T13:57:45.878Z,23.00
2018-08-20T14:00:13.894Z,23.30
2018-08-20T14:02:41.188Z,23.70
2018-08-20T14:05:08.499Z,24.20
2018-08-20T14:07:35.550Z,24.70
2018-08-20T14:10:02.503Z,25.00
2018-08-20T14:12:29.825Z,25.10
2018-08-20T14:14:56.834Z,25.00
2018-08-20T14:17:23.913Z,25.10
2018-08-20T14:19:50.894Z,25.20
2018-08-20T14:22:17.854Z,25.10
2018-08-20T14:24:44.859Z,25.00
2018-08-20T14:27:11.801Z,25.10
2018-08-20T14:29:38.753Z,25.00
2018-08-20T14:32:05.707Z,25.00
2018-08-20T14:34:33.070Z,25.00
2018-08-20T14:37:00.156Z,25.30
2018-08-20T14:39:32.781Z,25.50
2018-08-20T14:41:59.944Z,25.70
2018-08-20T14:44:26.950Z,25.70
2018-08-20T14:46:53.951Z,25.50
2018-08-20T14:49:20.960Z,25.40
2018-08-20T14:51:47.883Z,25.20
2018-08-20T14:56:41.931Z,25.20
2018-08-20T15:06:30.010Z,24.70
2018-08-20T15:08:57.193Z,24.40
2018-08-20T15:11:24.169Z,24.30
2018-08-20T15:13:51.154Z,24.00
2018-08-20T15:16:18.805Z,24.10
2018-08-20T15:18:45.778Z,24.10
2018-08-20T15:21:12.723Z,23.90
2018-08-20T15:23:39.655Z,24.00
2018-08-20T15:26:06.660Z,24.10
2018-08-20T15:28:33.628Z,24.10
2018-08-20T15:31:00.611Z,24.10
2018-08-20T15:33:27.813Z,24.30
2018-08-20T15:35:54.777Z,24.30
2018-08-20T15:38:21.733Z,24.40
2018-08-20T15:40:48.720Z,24.20
2018-08-20T15:43:15.690Z,24.10
2018-08-20T15:45:42.669Z,24.20
2018-08-20T15:48:09.651Z,24.10
2018-08-20T15:50:36.580Z,24.20
2018-08-20T15:53:03.604Z,24.20
2018-08-20T15:55:30.566Z,24.30
2018-08-20T15:57:57.518Z,24.30
2018-08-20T16:00:24.640Z,24.30
2018-08-20T16:02:51.581Z,24.20
2018-08-20T16:05:18.567Z,24.10
2018-08-20T16:07:45.586Z,24.10
2018-08-20T16:10:12.589Z,23.90
2018-08-20T16:12:39.978Z,23.90
2018-08-20T16:15:07.824Z,23.90
2018-08-20T16:17:35.094Z,23.90
2018-08-20T16:20:02.131Z,23.80
2018-08-20T16:22:29.296Z,23.80
2018-08-20T16:24:56.366Z,23.80
2018-08-20T16:27:23.295Z,23.80
2018-08-20T16:29:50.249Z,23.80
2018-08-20T16:32:17.277Z,23.80
2018-08-20T16:34:44.303Z,23.70
2018-08-20T16:37:11.218Z,23.60
2018-08-20T16:39:38.238Z,23.70
2018-08-20T16:42:05.195Z,23.70
2018-08-20T16:44:32.214Z,23.80
2018-08-20T16:46:59.336Z,23.70
2018-08-20T16:49:26.395Z,23.80
2018-08-20T16:51:53.406Z,23.80
2018-08-20T16:54:20.419Z,23.70
2018-08-20T16:56:47.371Z,23.70
2018-08-20T16:59:14.344Z,23.60
2018-08-20T17:01:41.321Z,23.60
2018-08-20T17:04:24.625Z,23.60
2018-08-20T17:06:51.621Z,23.60
2018-08-20T17:09:18.536Z,23.50
2018-08-20T17:11:45.505Z,23.50
2018-08-20T17:16:39.938Z,23.50
2018-08-20T17:19:07.251Z,23.30
2018-08-20T17:21:34.310Z,23.40
2018-08-20T17:24:01.364Z,23.30
2018-08-20T17:26:28.440Z,23.30
2018-08-20T17:29:00.123Z,23.30
2018-08-20T17:31:34.750Z,23.20
2018-08-20T18:01:07.961Z,23.10
2018-08-20T18:03:35.877Z,22.70
2018-08-20T18:06:04.530Z,22.60
2018-08-20T18:08:32.693Z,22.50
2018-08-20T18:10:59.983Z,22.50
2018-08-20T18:13:38.574Z,22.50
2018-08-20T18:16:07.788Z,22.50
2018-08-20T18:18:35.391Z,22.50
2018-08-20T18:21:03.172Z,22.50
2018-08-20T18:23:31.700Z,22.50
2018-08-20T18:25:58.629Z,22.50
2018-08-20T18:28:25.755Z,22.40
2018-08-20T18:31:00.585Z,22.50
2018-08-20T18:33:28.765Z,22.50
2018-08-20T18:35:58.007Z,22.50
2018-08-20T18:38:24.978Z,22.50
2018-08-20T18:40:52.187Z,22.50
2018-08-20T18:43:20.469Z,22.50
2018-08-20T18:45:47.369Z,22.50
2018-08-20T18:48:15.283Z,22.60
2018-08-20T18:50:44.013Z,22.40
2018-08-20T18:53:10.995Z,22.50
2018-08-20T18:55:44.606Z,22.50
2018-08-20T18:58:11.562Z,22.40
2018-08-20T19:00:38.593Z,22.40
2018-08-20T19:03:05.610Z,22.50
2018-08-20T19:05:43.861Z,22.40
2018-08-20T19:08:15.502Z,22.40
2018-08-20T19:10:42.443Z,22.30
2018-08-20T19:13:09.446Z,22.30
2018-08-20T19:15:41.360Z,22.30
2018-08-20T19:18:11.514Z,22.40
2018-08-20T19:20:39.219Z,22.30
2018-08-20T19:23:06.222Z,22.30
2018-08-20T19:25:33.608Z,22.30
2018-08-20T19:28:02.681Z,22.30
2018-08-20T19:30:31.226Z,22.40
2018-08-20T19:32:58.291Z,22.40
2018-08-20T19:35:25.616Z,22.30
2018-08-20T19:37:52.567Z,22.30
2018-08-20T19:40:19.540Z,22.30
2018-08-20T19:42:47.430Z,22.30
2018-08-20T19:45:14.463Z,22.30
2018-08-20T19:47:41.466Z,22.20
2018-08-20T19:50:09.956Z,22.30
2018-08-20T19:52:37.104Z,22.30
2018-08-20T19:55:07.556Z,22.40
2018-08-20T19:57:35.056Z,22.40
2018-08-20T20:00:02.464Z,22.30
2018-08-20T20:02:29.504Z,22.20
2018-08-20T20:05:02.273Z,22.20
2018-08-20T20:07:29.267Z,22.20
2018-08-20T20:09:56.270Z,22.20
2018-08-20T20:12:23.342Z,22.20
2018-08-20T20:14:50.277Z,22.20
2018-08-20T20:17:17.271Z,22.10
2018-08-20T20:19:44.257Z,22.20
2018-08-20T20:22:14.030Z,22.10
2018-08-20T20:24:41.042Z,22.20
2018-08-20T20:27:08.005Z,22.10
2018-08-20T20:29:34.989Z,22.10
2018-08-20T20:32:01.986Z,22.10
2018-08-20T20:34:28.909Z,22.10
2018-08-20T20:36:56.193Z,22.10
2018-08-20T20:39:23.125Z,22.10
2018-08-20T20:41:50.089Z,22.00
2018-08-20T20:44:17.038Z,22.10
2018-08-20T20:46:44.006Z,22.00
2018-08-20T20:49:10.955Z,21.90
2018-08-20T20:51:38.232Z,22.00
2018-08-20T20:54:05.240Z,21.90
2018-08-20T20:56:32.156Z,21.90
2018-08-20T20:58:59.095Z,21.80
2018-08-20T21:01:26.099Z,21.70
2018-08-20T21:03:53.063Z,21.70
2018-08-20T21:06:20.060Z,21.60
2018-08-20T21:08:48.096Z,21.70
2018-08-20T21:11:16.061Z,21.70
2018-08-20T21:13:43.913Z,21.70
2018-08-20T21:16:12.132Z,21.70
2018-08-20T21:18:48.618Z,21.70
2018-08-20T21:21:16.772Z,21.80
2018-08-20T21:23:43.858Z,21.80
2018-08-20T21:26:10.948Z,21.80
2018-08-20T21:28:41.692Z,21.80
2018-08-20T21:31:08.636Z,21.70
2018-08-20T21:33:35.991Z,21.80
2018-08-20T21:36:03.108Z,21.80
2018-08-20T21:38:30.535Z,21.80
2018-08-20T21:40:57.905Z,21.80
2018-08-20T21:43:25.501Z,21.80
2018-08-20T21:45:52.441Z,21.70
2018-08-20T21:48:19.475Z,21.70
2018-08-20T21:50:46.457Z,21.80
2018-08-20T21:53:13.411Z,21.70
2018-08-20T21:55:40.692Z,21.60
2018-08-20T21:58:07.693Z,21.70
2018-08-20T22:00:34.674Z,21.60
2018-08-20T22:03:01.720Z,21.50
2018-08-20T22:05:29.024Z,21.60
2018-08-20T22:07:57.257Z,21.50
2018-08-20T22:10:25.499Z,21.50
2018-08-20T22:12:52.602Z,21.50
2018-08-20T22:15:19.538Z,21.40
2018-08-20T22:17:46.907Z,21.50
2018-08-20T22:20:13.903Z,21.50
2018-08-20T22:22:40.913Z,21.40
2018-08-20T22:25:14.149Z,21.40
2018-08-20T22:27:46.948Z,21.30
2018-08-20T22:30:13.969Z,21.30
2018-08-20T22:32:40.891Z,21.30
2018-08-20T22:35:14.033Z,21.30
2018-08-20T22:37:41.181Z,21.30
2018-08-20T22:40:08.507Z,21.30
2018-08-20T22:42:51.458Z,21.20
2018-08-20T22:45:19.446Z,21.20
2018-08-20T22:47:47.489Z,21.20
2018-08-20T22:50:14.538Z,21.20
2018-08-20T22:52:46.101Z,21.20
2018-08-20T22:55:14.901Z,21.10
2018-08-20T22:57:49.015Z,21.00
2018-08-20T23:00:23.422Z,20.90
2018-08-20T23:02:51.126Z,20.60
2018-08-20T23:05:18.127Z,20.60
2018-08-20T23:07:45.119Z,20.60
2018-08-20T23:10:12.117Z,20.90
2018-08-20T23:12:40.421Z,21.00
2018-08-20T23:15:07.721Z,20.90
2018-08-20T23:17:34.675Z,20.90
2018-08-20T23:20:01.670Z,20.70
2018-08-20T23:22:29.546Z,20.90
2018-08-20T23:24:57.448Z,20.90
2018-08-20T23:27:28.844Z,20.80
2018-08-20T23:29:55.813Z,20.90
2018-08-20T23:32:23.179Z,21.00
2018-08-20T23:34:50.923Z,21.00
2018-08-20T23:37:17.894Z,21.10
2018-08-20T23:39:45.002Z,21.00
2018-08-20T23:42:11.992Z,21.10
2018-08-20T23:44:39.313Z,21.00
2018-08-20T23:47:06.264Z,21.10
2018-08-20T23:49:33.210Z,21.20
2018-08-20T23:52:00.192Z,21.30
2018-08-20T23:54:27.152Z,21.20
2018-08-20T23:56:54.120Z,21.10
2018-08-20T23:59:21.097Z,21.00
